createdAt,value
2023-01-19T00:00:09.061Z,64.08
2023-01-19T00:01:10.608Z,64.17
2023-01-19T00:02:12.092Z,64.49
2023-01-19T00:03:17.927Z,64.50
2023-01-19T00:04:19.505Z,64.29
2023-01-19T00:05:20.987Z,64.83
2023-01-19T00:06:22.620Z,64.79
2023-01-19T00:07:24.179Z,65.02
2023-01-19T00:08:25.755Z,64.68
2023-01-19T00:09:33.413Z,65.19
2023-01-19T00:10:34.904Z,65.25
2023-01-19T00:11:36.657Z,64.61
2023-01-19T00:12:38.293Z,64.49
2023-01-19T00:13:39.999Z,64.66
2023-01-19T00:14:41.693Z,64.67
2023-01-19T00:15:43.432Z,64.15
2023-01-19T00:16:44.941Z,64.53
2023-01-19T00:17:46.415Z,63.98
2023-01-19T00:18:48.043Z,64.02
2023-01-19T00:19:49.620Z,63.74
2023-01-19T00:20:51.099Z,63.73
2023-01-19T00:21:52.620Z,64.14
2023-01-19T00:22:54.124Z,63.64
2023-01-19T00:23:55.604Z,63.69
2023-01-19T00:24:57.219Z,63.53
2023-01-19T00:25:58.781Z,63.65
2023-01-19T00:27:01.599Z,64.02
2023-01-19T00:28:03.162Z,63.66
2023-01-19T00:29:04.813Z,63.76
2023-01-19T00:30:06.728Z,63.91
2023-01-19T00:31:08.403Z,64.30
2023-01-19T00:32:09.929Z,64.80
2023-01-19T00:33:13.765Z,64.51
2023-01-19T00:34:15.352Z,64.33
2023-01-19T00:35:16.928Z,64.86
2023-01-19T00:36:19.205Z,64.63
2023-01-19T00:37:20.678Z,63.84
2023-01-19T00:38:22.194Z,63.76
2023-01-19T00:39:23.741Z,63.30
2023-01-19T00:40:25.229Z,63.70
2023-01-19T00:41:45.164Z,63.58
2023-01-19T00:42:48.436Z,63.78
2023-01-19T00:43:50.033Z,63.71
2023-01-19T00:44:51.549Z,63.58
2023-01-19T00:45:53.579Z,64.07
2023-01-19T00:46:55.127Z,63.62
2023-01-19T00:47:59.597Z,63.95
2023-01-19T00:49:01.189Z,64.07
2023-01-19T00:50:02.916Z,64.54
2023-01-19T00:51:04.556Z,64.34
2023-01-19T00:52:06.056Z,63.80
2023-01-19T00:53:07.541Z,64.44
2023-01-19T00:54:10.328Z,64.55
2023-01-19T00:55:13.059Z,63.74
2023-01-19T00:56:14.535Z,64.40
2023-01-19T00:57:16.391Z,64.66
2023-01-19T00:58:17.951Z,64.55
2023-01-19T00:59:19.417Z,64.80
2023-01-19T01:00:21.274Z,64.73
2023-01-19T01:01:23.049Z,64.95
2023-01-19T01:02:44.704Z,64.41
2023-01-19T01:03:46.417Z,64.38
2023-01-19T01:04:47.901Z,64.63
2023-01-19T01:05:49.390Z,64.57
2023-01-19T01:06:51.049Z,64.68
2023-01-19T01:07:52.529Z,64.23
2023-01-19T01:08:54.070Z,64.03
2023-01-19T01:09:56.723Z,63.96
2023-01-19T01:10:58.231Z,64.24
2023-01-19T01:11:59.897Z,64.22
2023-01-19T01:13:22.551Z,64.19
2023-01-19T01:14:23.794Z,64.28
2023-01-19T01:15:26.491Z,64.28
2023-01-19T01:16:28.058Z,63.86
2023-01-19T01:17:29.632Z,64.09
2023-01-19T01:18:31.137Z,63.84
2023-01-19T01:19:32.635Z,63.43
2023-01-19T01:20:34.716Z,63.38
2023-01-19T01:21:37.282Z,62.99
2023-01-19T01:22:39.249Z,62.98
2023-01-19T01:23:40.810Z,62.97
2023-01-19T01:24:42.405Z,62.67
2023-01-19T01:25:44.107Z,63.16
2023-01-19T01:26:46.026Z,62.71
2023-01-19T01:27:47.495Z,62.80
2023-01-19T01:28:49.281Z,62.24
2023-01-19T01:29:50.779Z,62.49
2023-01-19T01:30:55.344Z,62.33
2023-01-19T01:31:56.952Z,62.71
2023-01-19T01:32:58.845Z,63.21
2023-01-19T01:34:00.704Z,63.54
2023-01-19T01:35:02.231Z,63.12
2023-01-19T01:36:03.918Z,63.59
2023-01-19T01:37:08.305Z,63.82
2023-01-19T01:38:09.789Z,64.05
2023-01-19T01:39:11.292Z,63.96
2023-01-19T01:40:13.337Z,64.56
2023-01-19T01:41:14.893Z,64.30
2023-01-19T01:42:17.641Z,64.70
2023-01-19T01:43:19.236Z,64.77
2023-01-19T01:44:39.465Z,65.22
2023-01-19T01:45:41.040Z,64.90
2023-01-19T01:46:42.556Z,64.61
2023-01-19T01:47:44.865Z,65.36
2023-01-19T01:49:06.003Z,65.49
2023-01-19T01:50:16.736Z,66.06
2023-01-19T01:51:30.404Z,65.46
2023-01-19T01:52:32.471Z,65.65
2023-01-19T01:53:34.045Z,65.17
2023-01-19T01:54:35.978Z,65.25
2023-01-19T01:55:41.316Z,65.85
2023-01-19T01:56:44.175Z,66.27
2023-01-19T01:57:46.468Z,66.65
2023-01-19T01:58:48.160Z,66.58
2023-01-19T01:59:49.738Z,67.38
2023-01-19T02:01:10.036Z,67.71
2023-01-19T02:02:31.596Z,67.68
2023-01-19T02:03:33.226Z,67.67
2023-01-19T02:04:34.809Z,67.71
2023-01-19T02:05:36.375Z,67.73
2023-01-19T02:06:56.332Z,67.37
2023-01-19T02:08:29.717Z,67.09
2023-01-19T02:09:49.834Z,66.80
2023-01-19T02:11:09.961Z,66.84
2023-01-19T02:12:30.539Z,66.83
2023-01-19T02:13:33.082Z,66.77
2023-01-19T02:14:35.755Z,66.63
2023-01-19T02:15:37.275Z,66.26
2023-01-19T02:16:38.845Z,66.58
2023-01-19T02:17:40.353Z,65.87
2023-01-19T02:18:41.952Z,65.79
2023-01-19T02:19:43.503Z,65.76
2023-01-19T02:20:50.551Z,65.99
2023-01-19T02:21:55.120Z,65.43
2023-01-19T02:22:57.030Z,64.99
2023-01-19T02:23:59.023Z,64.95
2023-01-19T02:25:00.815Z,65.11
2023-01-19T02:26:02.350Z,64.98
2023-01-19T02:27:03.860Z,65.02
2023-01-19T02:28:05.402Z,65.17
2023-01-19T02:29:07.798Z,64.99
2023-01-19T02:30:09.989Z,65.02
2023-01-19T02:31:11.520Z,64.96
2023-01-19T02:32:13.185Z,64.61
2023-01-19T02:33:14.692Z,64.62
2023-01-19T02:34:16.980Z,65.14
2023-01-19T02:35:18.469Z,65.60
2023-01-19T02:36:21.327Z,65.97
2023-01-19T02:37:22.872Z,65.28
2023-01-19T02:38:25.154Z,65.85
2023-01-19T02:39:39.022Z,65.80
2023-01-19T02:40:40.814Z,65.25
2023-01-19T02:41:43.149Z,65.33
2023-01-19T02:42:50.779Z,65.34
2023-01-19T02:43:52.276Z,64.55
2023-01-19T02:44:54.644Z,64.57
2023-01-19T02:45:56.359Z,64.36
2023-01-19T02:46:57.870Z,64.44
2023-01-19T02:47:59.446Z,64.82
2023-01-19T02:49:01.569Z,64.99
2023-01-19T02:50:03.148Z,65.64
2023-01-19T02:51:09.381Z,65.69
2023-01-19T02:52:17.347Z,65.87
2023-01-19T02:53:34.216Z,65.82
2023-01-19T02:54:35.707Z,65.91
2023-01-19T02:55:37.524Z,65.55
2023-01-19T02:56:42.688Z,65.87
2023-01-19T02:57:53.023Z,65.97
2023-01-19T02:58:57.141Z,65.86
2023-01-19T03:00:02.516Z,65.63
2023-01-19T03:01:15.468Z,65.74
2023-01-19T03:02:26.104Z,65.29
2023-01-19T03:03:30.959Z,65.38
2023-01-19T03:04:38.270Z,65.21
2023-01-19T03:05:48.881Z,65.91
2023-01-19T03:06:52.659Z,65.83
2023-01-19T03:07:56.730Z,65.67
2023-01-19T03:09:02.851Z,65.49
2023-01-19T03:10:08.517Z,65.47
2023-01-19T03:11:13.085Z,65.27
2023-01-19T03:12:20.729Z,65.35
2023-01-19T03:13:34.192Z,65.40
2023-01-19T03:14:37.260Z,65.03
2023-01-19T03:15:59.088Z,65.29
2023-01-19T03:17:01.603Z,65.94
2023-01-19T03:18:03.231Z,65.29
2023-01-19T03:19:13.255Z,65.20
2023-01-19T03:20:14.936Z,65.26
2023-01-19T03:21:16.535Z,65.67
2023-01-19T03:22:22.675Z,65.83
2023-01-19T03:23:24.708Z,66.07
2023-01-19T03:24:26.740Z,65.89
2023-01-19T03:25:28.392Z,66.17
2023-01-19T03:26:30.270Z,65.64
2023-01-19T03:27:32.463Z,65.84
2023-01-19T03:28:33.972Z,66.24
2023-01-19T03:29:35.533Z,66.09
2023-01-19T03:30:40.556Z,66.11
2023-01-19T03:31:43.270Z,65.98
2023-01-19T03:33:00.775Z,65.39
2023-01-19T03:34:03.782Z,66.23
2023-01-19T03:35:06.917Z,65.99
2023-01-19T03:36:09.107Z,65.97
2023-01-19T03:37:10.604Z,66.21
2023-01-19T03:38:13.634Z,65.60
2023-01-19T03:39:16.324Z,66.10
2023-01-19T03:40:17.880Z,66.13
2023-01-19T03:41:19.755Z,66.32
2023-01-19T03:42:21.226Z,66.52
2023-01-19T03:43:22.719Z,66.66
2023-01-19T03:44:24.449Z,66.53
2023-01-19T03:45:25.938Z,66.35
2023-01-19T03:46:27.606Z,66.15
2023-01-19T03:47:29.196Z,66.36
2023-01-19T03:48:30.806Z,66.14
2023-01-19T03:49:32.314Z,66.33
2023-01-19T03:50:33.819Z,65.71
2023-01-19T03:51:36.201Z,66.16
2023-01-19T03:52:37.686Z,66.18
2023-01-19T03:53:39.222Z,66.01
2023-01-19T03:54:41.078Z,65.45
2023-01-19T03:55:43.439Z,66.09
2023-01-19T03:56:45.321Z,65.99
2023-01-19T03:57:46.804Z,66.27
2023-01-19T03:58:48.349Z,66.01
2023-01-19T03:59:49.841Z,65.50
2023-01-19T04:00:51.407Z,65.42
2023-01-19T04:01:53.051Z,65.14
2023-01-19T04:02:55.460Z,65.22
2023-01-19T04:03:57.055Z,65.16
2023-01-19T04:04:58.593Z,65.09
2023-01-19T04:06:00.102Z,65.31
2023-01-19T04:07:01.710Z,65.25
2023-01-19T04:08:03.310Z,65.97
2023-01-19T04:09:05.044Z,65.57
2023-01-19T04:10:06.849Z,65.68
2023-01-19T04:11:08.523Z,65.60
2023-01-19T04:12:10.076Z,65.70
2023-01-19T04:13:11.605Z,66.07
2023-01-19T04:14:13.683Z,65.84
2023-01-19T04:15:15.257Z,66.08
2023-01-19T04:16:20.511Z,66.44
2023-01-19T04:17:22.063Z,66.24
2023-01-19T04:18:23.581Z,66.72
2023-01-19T04:19:25.446Z,66.89
2023-01-19T04:20:28.167Z,66.23
2023-01-19T04:21:29.921Z,66.57
2023-01-19T04:22:31.452Z,66.31
2023-01-19T04:23:33.654Z,66.39
2023-01-19T04:24:35.250Z,66.15
2023-01-19T04:25:38.137Z,65.72
2023-01-19T04:26:40.435Z,65.92
2023-01-19T04:27:41.961Z,65.71
2023-01-19T04:28:43.506Z,65.80
2023-01-19T04:29:45.268Z,65.93
2023-01-19T04:30:49.613Z,66.02
2023-01-19T04:31:51.142Z,65.82
2023-01-19T04:32:53.581Z,65.50
2023-01-19T04:33:55.696Z,65.42
2023-01-19T04:34:57.181Z,65.88
2023-01-19T04:35:58.704Z,65.63
2023-01-19T04:37:00.331Z,65.61
2023-01-19T04:38:01.824Z,65.79
2023-01-19T04:39:03.386Z,66.29
2023-01-19T04:40:05.178Z,65.87
2023-01-19T04:41:06.662Z,65.95
2023-01-19T04:42:08.214Z,66.48
2023-01-19T04:43:10.023Z,66.67
2023-01-19T04:44:11.631Z,66.71
2023-01-19T04:45:13.368Z,66.53
2023-01-19T04:46:14.987Z,66.52
2023-01-19T04:47:16.525Z,66.77
2023-01-19T04:48:18.505Z,66.52
2023-01-19T04:49:20.352Z,66.52
2023-01-19T04:50:21.921Z,67.04
2023-01-19T04:51:23.481Z,67.62
2023-01-19T04:52:25.631Z,68.13
2023-01-19T04:53:27.114Z,68.37
2023-01-19T04:54:28.693Z,68.17
2023-01-19T04:55:30.196Z,68.13
2023-01-19T04:56:31.977Z,67.78
2023-01-19T04:57:33.603Z,67.91
2023-01-19T04:58:35.425Z,67.96
2023-01-19T04:59:36.915Z,67.72
2023-01-19T05:00:38.429Z,67.83
2023-01-19T05:01:39.942Z,68.38
2023-01-19T05:02:44.127Z,67.98
2023-01-19T05:03:45.784Z,68.13
2023-01-19T05:04:47.264Z,68.08
2023-01-19T05:05:48.796Z,68.64
2023-01-19T05:06:50.308Z,68.81
2023-01-19T05:07:51.788Z,68.56
2023-01-19T05:08:53.363Z,68.81
2023-01-19T05:09:55.274Z,69.43
2023-01-19T05:10:57.596Z,69.49
2023-01-19T05:11:59.109Z,69.07
2023-01-19T05:13:00.893Z,69.80
2023-01-19T05:14:02.653Z,69.97
2023-01-19T05:15:04.401Z,70.65
2023-01-19T05:16:06.499Z,70.29
2023-01-19T05:17:08.072Z,70.80
2023-01-19T05:18:09.809Z,70.47
2023-01-19T05:19:11.337Z,70.74
2023-01-19T05:20:15.718Z,70.53
2023-01-19T05:21:17.688Z,71.28
2023-01-19T05:22:19.193Z,70.78
2023-01-19T05:23:20.730Z,71.04
2023-01-19T05:24:22.287Z,71.50
2023-01-19T05:25:23.916Z,71.57
2023-01-19T05:26:25.399Z,71.52
2023-01-19T05:27:26.950Z,71.70
2023-01-19T05:28:28.972Z,71.45
2023-01-19T05:29:30.486Z,72.25
2023-01-19T05:30:31.996Z,71.96
2023-01-19T05:31:33.611Z,71.98
2023-01-19T05:32:35.189Z,71.60
2023-01-19T05:33:36.774Z,71.20
2023-01-19T05:34:38.336Z,71.25
2023-01-19T05:35:39.847Z,71.51
2023-01-19T05:36:41.604Z,71.50
2023-01-19T05:37:43.089Z,71.85
2023-01-19T05:38:44.611Z,71.70
2023-01-19T05:39:46.188Z,71.45
2023-01-19T05:40:47.727Z,72.17
2023-01-19T05:41:49.443Z,72.19
2023-01-19T05:42:50.980Z,72.12
2023-01-19T05:43:52.486Z,72.02
2023-01-19T05:44:54.073Z,71.85
2023-01-19T05:45:55.570Z,71.73
2023-01-19T05:46:57.162Z,71.55
2023-01-19T05:47:58.706Z,71.70
2023-01-19T05:49:01.692Z,71.57
2023-01-19T05:50:03.342Z,70.86
2023-01-19T05:51:05.263Z,71.55
2023-01-19T05:52:06.742Z,71.54
2023-01-19T05:53:08.209Z,72.01
2023-01-19T05:54:10.072Z,72.26
2023-01-19T05:55:11.572Z,72.19
2023-01-19T05:56:13.154Z,72.12
2023-01-19T05:57:14.732Z,71.94
2023-01-19T05:58:16.223Z,72.10
2023-01-19T05:59:24.003Z,71.51
2023-01-19T06:00:27.572Z,72.08
2023-01-19T06:01:29.187Z,71.43
2023-01-19T06:02:30.857Z,71.19
2023-01-19T06:03:32.844Z,70.79
2023-01-19T06:04:34.472Z,70.16
2023-01-19T06:05:38.386Z,70.20
2023-01-19T06:06:40.230Z,69.93
2023-01-19T06:07:41.730Z,70.19
2023-01-19T06:08:43.322Z,69.64
2023-01-19T06:09:44.832Z,69.85
2023-01-19T06:10:46.311Z,69.77
2023-01-19T06:11:47.888Z,69.67
2023-01-19T06:12:49.450Z,69.88
2023-01-19T06:13:51.059Z,69.19
2023-01-19T06:14:53.023Z,69.50
2023-01-19T06:15:58.196Z,69.34
2023-01-19T06:16:59.692Z,69.81
2023-01-19T06:18:01.244Z,69.48
2023-01-19T06:19:02.775Z,70.10
2023-01-19T06:20:05.403Z,70.64
2023-01-19T06:21:07.418Z,70.42
2023-01-19T06:22:09.001Z,70.62
2023-01-19T06:23:10.971Z,71.28
2023-01-19T06:24:13.831Z,71.50
2023-01-19T06:25:16.093Z,71.56
2023-01-19T06:26:17.608Z,71.14
2023-01-19T06:27:19.108Z,71.58
2023-01-19T06:28:20.585Z,70.79
2023-01-19T06:29:22.238Z,70.96
2023-01-19T06:30:23.746Z,70.88
2023-01-19T06:31:25.359Z,70.90
2023-01-19T06:32:26.826Z,71.14
2023-01-19T06:33:28.746Z,71.12
2023-01-19T06:34:30.310Z,71.13
2023-01-19T06:35:31.811Z,71.22
2023-01-19T06:36:33.388Z,70.99
2023-01-19T06:37:35.101Z,71.25
2023-01-19T06:38:36.598Z,70.97
2023-01-19T06:39:40.936Z,70.97
2023-01-19T06:40:42.489Z,70.24
2023-01-19T06:41:44.062Z,70.43
2023-01-19T06:42:45.533Z,70.71
2023-01-19T06:43:47.018Z,70.33
2023-01-19T06:44:48.517Z,70.23
2023-01-19T06:45:50.424Z,70.43
2023-01-19T06:46:52.036Z,69.80
2023-01-19T06:48:13.744Z,69.77
2023-01-19T06:49:15.203Z,69.82
2023-01-19T06:50:16.941Z,69.88
2023-01-19T06:51:18.460Z,69.36
2023-01-19T06:52:20.619Z,69.66
2023-01-19T06:53:22.471Z,69.47
2023-01-19T06:54:24.190Z,69.44
2023-01-19T06:55:25.678Z,68.93
2023-01-19T06:56:29.541Z,68.71
2023-01-19T06:57:31.051Z,69.05
2023-01-19T06:58:33.844Z,69.42
2023-01-19T06:59:35.455Z,69.08
2023-01-19T07:00:37.333Z,69.43
2023-01-19T07:01:39.020Z,68.83
2023-01-19T07:02:43.682Z,68.55
2023-01-19T07:03:46.884Z,69.03
2023-01-19T07:04:48.508Z,68.63
2023-01-19T07:05:53.347Z,68.49
2023-01-19T07:06:54.886Z,68.23
2023-01-19T07:07:56.503Z,68.56
2023-01-19T07:09:00.242Z,68.44
2023-01-19T07:10:01.746Z,68.09
2023-01-19T07:11:25.420Z,68.00
2023-01-19T07:12:27.525Z,67.86
2023-01-19T07:13:29.016Z,67.73
2023-01-19T07:14:33.572Z,67.83
2023-01-19T07:15:35.186Z,67.65
2023-01-19T07:16:36.724Z,67.47
2023-01-19T07:17:38.210Z,67.22
2023-01-19T07:18:39.925Z,67.02
2023-01-19T07:19:41.447Z,67.17
2023-01-19T07:20:44.421Z,67.43
2023-01-19T07:21:46.010Z,67.36
2023-01-19T07:22:47.540Z,67.65
2023-01-19T07:23:49.394Z,67.68
2023-01-19T07:24:50.917Z,67.60
2023-01-19T07:25:52.416Z,67.17
2023-01-19T07:26:53.950Z,67.13
2023-01-19T07:27:58.878Z,66.99
2023-01-19T07:29:00.372Z,67.12
2023-01-19T07:30:01.991Z,67.07
2023-01-19T07:31:03.670Z,66.92
2023-01-19T07:32:05.300Z,67.06
2023-01-19T07:33:06.897Z,66.83
2023-01-19T07:34:08.384Z,66.82
2023-01-19T07:35:10.064Z,66.97
2023-01-19T07:36:11.682Z,67.21
2023-01-19T07:37:13.399Z,67.05
2023-01-19T07:38:15.113Z,66.99
2023-01-19T07:39:16.693Z,67.14
2023-01-19T07:40:18.211Z,66.96
2023-01-19T07:41:19.810Z,67.14
2023-01-19T07:42:21.402Z,67.00
2023-01-19T07:43:23.203Z,67.22
2023-01-19T07:44:24.799Z,67.27
2023-01-19T07:45:27.998Z,67.05
2023-01-19T07:46:29.695Z,67.37
2023-01-19T07:47:31.177Z,67.54
2023-01-19T07:48:32.697Z,66.91
2023-01-19T07:49:35.563Z,67.07
2023-01-19T07:50:37.130Z,66.99
2023-01-19T07:51:38.745Z,66.69
2023-01-19T07:52:40.308Z,66.67
2023-01-19T07:53:42.001Z,66.81
2023-01-19T07:54:43.721Z,66.58
2023-01-19T07:55:45.339Z,66.84
2023-01-19T07:56:46.876Z,66.92
2023-01-19T07:57:50.900Z,67.00
2023-01-19T07:58:52.589Z,67.19
2023-01-19T07:59:54.161Z,67.08
2023-01-19T08:00:55.769Z,67.00
2023-01-19T08:01:59.693Z,67.07
2023-01-19T08:03:02.055Z,66.98
2023-01-19T08:04:03.776Z,66.85
2023-01-19T08:05:05.435Z,67.11
2023-01-19T08:06:07.029Z,67.13
2023-01-19T08:07:09.669Z,67.57
2023-01-19T08:08:12.565Z,68.01
2023-01-19T08:09:14.109Z,67.96
2023-01-19T08:10:15.628Z,68.33
2023-01-19T08:11:17.165Z,68.25
2023-01-19T08:12:18.884Z,68.25
2023-01-19T08:13:20.404Z,68.70
2023-01-19T08:14:21.906Z,68.77
2023-01-19T08:15:24.717Z,68.66
2023-01-19T08:16:26.257Z,68.28
2023-01-19T08:17:27.754Z,68.94
2023-01-19T08:18:29.283Z,68.50
2023-01-19T08:19:30.767Z,68.46
2023-01-19T08:20:32.439Z,68.14
2023-01-19T08:21:35.548Z,68.16
2023-01-19T08:22:37.223Z,68.51
2023-01-19T08:23:38.867Z,69.03
2023-01-19T08:24:40.499Z,69.01
2023-01-19T08:25:42.461Z,69.17
2023-01-19T08:26:44.029Z,69.05
2023-01-19T08:27:45.673Z,68.99
2023-01-19T08:28:47.260Z,69.02
2023-01-19T08:29:48.861Z,69.11
2023-01-19T08:30:56.292Z,69.14
2023-01-19T08:32:00.173Z,68.83
2023-01-19T08:33:04.688Z,69.05
2023-01-19T08:34:06.346Z,68.48
2023-01-19T08:35:08.103Z,68.33
2023-01-19T08:36:09.625Z,68.10
2023-01-19T08:37:11.472Z,68.08
2023-01-19T08:38:12.977Z,68.31
2023-01-19T08:39:14.477Z,68.00
2023-01-19T08:40:16.019Z,67.84
2023-01-19T08:41:17.586Z,67.75
2023-01-19T08:42:19.129Z,67.81
2023-01-19T08:43:20.915Z,67.50
2023-01-19T08:44:22.452Z,67.04
2023-01-19T08:45:24.282Z,67.00
2023-01-19T08:46:25.876Z,67.53
2023-01-19T08:47:27.510Z,67.71
2023-01-19T08:48:29.053Z,68.20
2023-01-19T08:49:30.620Z,68.66
2023-01-19T08:50:32.291Z,68.69
2023-01-19T08:51:33.870Z,68.36
2023-01-19T08:52:35.666Z,68.52
2023-01-19T08:53:37.131Z,68.47
2023-01-19T08:54:38.613Z,68.30
2023-01-19T08:55:40.676Z,68.56
2023-01-19T08:56:42.304Z,67.98
2023-01-19T08:57:43.855Z,68.03
2023-01-19T08:58:46.745Z,68.47
2023-01-19T08:59:50.933Z,68.53
2023-01-19T09:00:52.736Z,69.04
2023-01-19T09:01:54.420Z,69.39
2023-01-19T09:02:56.915Z,69.11
2023-01-19T09:03:58.416Z,68.88
2023-01-19T09:04:59.893Z,68.09
2023-01-19T09:06:01.844Z,68.17
2023-01-19T09:07:03.361Z,68.53
2023-01-19T09:08:06.407Z,67.72
2023-01-19T09:09:07.910Z,66.70
2023-01-19T09:10:10.460Z,66.74
2023-01-19T09:11:12.769Z,66.00
2023-01-19T09:12:14.740Z,64.25
2023-01-19T09:13:16.366Z,64.21
2023-01-19T09:14:17.910Z,64.19
2023-01-19T09:15:19.416Z,64.01
2023-01-19T09:16:20.957Z,61.80
2023-01-19T09:17:22.508Z,61.02
2023-01-19T09:18:24.079Z,60.84
2023-01-19T09:19:25.562Z,60.78
2023-01-19T09:20:27.173Z,60.14
2023-01-19T09:21:29.030Z,61.07
2023-01-19T09:22:30.529Z,59.82
2023-01-19T09:23:32.133Z,59.34
2023-01-19T09:24:34.997Z,58.28
2023-01-19T09:25:39.803Z,58.48
2023-01-19T09:26:41.394Z,58.88
2023-01-19T09:27:42.912Z,58.88
2023-01-19T09:28:44.454Z,59.28
2023-01-19T09:29:52.410Z,58.29
2023-01-19T09:30:53.983Z,58.91
2023-01-19T09:31:55.672Z,58.04
2023-01-19T09:33:01.177Z,57.65
2023-01-19T09:34:02.758Z,56.72
2023-01-19T09:35:04.368Z,56.67
2023-01-19T09:36:06.075Z,56.86
2023-01-19T09:37:08.893Z,56.56
2023-01-19T09:38:10.575Z,55.56
2023-01-19T09:39:12.195Z,55.49
2023-01-19T09:40:14.137Z,55.63
2023-01-19T09:41:20.249Z,54.89
2023-01-19T09:42:24.742Z,55.02
2023-01-19T09:43:47.845Z,55.69
2023-01-19T09:44:49.525Z,54.32
2023-01-19T09:45:54.980Z,54.61
2023-01-19T09:46:56.473Z,53.99
2023-01-19T09:47:58.163Z,54.49
2023-01-19T09:49:01.494Z,55.40
2023-01-19T09:50:06.964Z,54.21
2023-01-19T09:51:10.658Z,55.05
2023-01-19T09:52:12.733Z,54.81
2023-01-19T09:53:16.301Z,54.21
2023-01-19T09:54:23.574Z,52.47
2023-01-19T09:55:25.624Z,52.29
2023-01-19T09:56:27.517Z,52.09
2023-01-19T09:57:30.074Z,51.21
2023-01-19T09:58:31.653Z,51.14
2023-01-19T09:59:33.172Z,50.82
2023-01-19T10:00:34.775Z,50.42
2023-01-19T10:01:38.120Z,50.29
2023-01-19T10:02:44.223Z,50.45
2023-01-19T10:03:45.882Z,50.63
2023-01-19T10:05:05.864Z,50.02
2023-01-19T10:06:07.364Z,50.26
2023-01-19T10:07:10.012Z,49.99
2023-01-19T10:08:23.706Z,49.65
2023-01-19T10:09:28.716Z,49.42
2023-01-19T10:10:33.388Z,49.49
2023-01-19T10:11:52.084Z,49.83
2023-01-19T10:13:01.391Z,49.99
2023-01-19T10:14:03.840Z,50.21
2023-01-19T10:15:11.836Z,50.32
2023-01-19T10:16:16.467Z,50.56
2023-01-19T10:17:30.024Z,50.62
2023-01-19T10:18:43.221Z,50.20
2023-01-19T10:19:46.756Z,50.61
2023-01-19T10:20:51.308Z,51.02
2023-01-19T10:21:52.804Z,50.78
2023-01-19T10:22:54.321Z,51.00
2023-01-19T10:23:56.376Z,51.66
2023-01-19T10:25:01.780Z,52.07
2023-01-19T10:26:06.692Z,51.82
2023-01-19T10:27:15.919Z,51.96
2023-01-19T10:28:17.725Z,52.29
2023-01-19T10:29:34.586Z,52.51
2023-01-19T10:30:36.149Z,52.59
2023-01-19T10:31:37.954Z,52.68
2023-01-19T10:32:39.583Z,52.70
2023-01-19T10:33:41.113Z,52.87
2023-01-19T10:34:42.864Z,52.99
2023-01-19T10:35:45.083Z,53.15
2023-01-19T10:36:47.122Z,53.27
2023-01-19T10:37:48.842Z,53.10
2023-01-19T10:38:50.945Z,53.28
2023-01-19T10:39:53.086Z,52.52
2023-01-19T10:41:04.623Z,52.49
2023-01-19T10:42:06.647Z,52.99
2023-01-19T10:43:27.069Z,52.84
2023-01-19T10:44:29.209Z,53.31
2023-01-19T10:45:30.882Z,53.72
2023-01-19T10:46:34.227Z,54.00
2023-01-19T10:47:36.297Z,54.37
2023-01-19T10:48:38.966Z,53.81
2023-01-19T10:49:42.807Z,54.23
2023-01-19T10:50:44.395Z,54.78
2023-01-19T10:51:46.627Z,54.47
2023-01-19T10:52:51.628Z,54.50
2023-01-19T10:54:02.751Z,54.66
2023-01-19T10:55:04.712Z,54.61
2023-01-19T10:56:21.286Z,54.61
2023-01-19T10:57:30.809Z,54.67
2023-01-19T10:58:32.647Z,54.08
2023-01-19T10:59:38.176Z,53.99
2023-01-19T11:00:40.467Z,54.08
2023-01-19T11:01:42.298Z,54.34
2023-01-19T11:02:49.427Z,53.96
2023-01-19T11:03:51.327Z,53.93
2023-01-19T11:04:54.207Z,54.21
2023-01-19T11:06:15.948Z,53.82
2023-01-19T11:07:26.416Z,53.77
2023-01-19T11:08:29.354Z,54.71
2023-01-19T11:09:30.861Z,55.06
2023-01-19T11:10:33.406Z,54.72
2023-01-19T11:11:34.935Z,54.75
2023-01-19T11:12:39.281Z,55.05
2023-01-19T11:13:41.359Z,54.91
2023-01-19T11:14:42.871Z,55.21
2023-01-19T11:15:45.240Z,55.67
2023-01-19T11:16:47.595Z,55.79
2023-01-19T11:17:49.207Z,55.45
2023-01-19T11:18:54.538Z,55.89
2023-01-19T11:19:56.795Z,55.93
2023-01-19T11:21:07.763Z,55.85
2023-01-19T11:22:09.251Z,56.09
2023-01-19T11:23:22.518Z,56.07
2023-01-19T11:24:24.086Z,55.62
2023-01-19T11:25:28.104Z,55.40
2023-01-19T11:26:49.925Z,55.44
2023-01-19T11:27:51.866Z,55.36
2023-01-19T11:28:54.700Z,55.78
2023-01-19T11:30:02.275Z,55.75
2023-01-19T11:31:03.971Z,55.65
2023-01-19T11:32:12.483Z,55.69
2023-01-19T11:33:23.454Z,55.75
2023-01-19T11:34:34.884Z,55.82
2023-01-19T11:35:37.594Z,55.52
2023-01-19T11:36:39.094Z,55.49
2023-01-19T11:37:42.895Z,55.64
2023-01-19T11:38:45.175Z,55.58
2023-01-19T11:39:47.469Z,55.89
2023-01-19T11:40:51.533Z,55.64
2023-01-19T11:41:54.887Z,55.35
2023-01-19T11:42:56.455Z,55.58
2023-01-19T11:43:58.582Z,55.37
2023-01-19T11:45:00.157Z,55.98
2023-01-19T11:46:01.719Z,54.91
2023-01-19T11:47:04.097Z,55.26
2023-01-19T11:48:05.763Z,55.26
2023-01-19T11:49:33.737Z,55.84
2023-01-19T11:50:36.332Z,55.05
2023-01-19T11:51:40.185Z,54.68
2023-01-19T11:53:07.870Z,54.93
2023-01-19T11:54:14.064Z,54.85
2023-01-19T11:55:17.742Z,55.29
2023-01-19T11:56:20.614Z,55.49
2023-01-19T11:57:22.251Z,55.05
2023-01-19T11:58:23.931Z,55.44
2023-01-19T11:59:25.669Z,55.22
2023-01-19T12:00:35.616Z,55.03
2023-01-19T12:01:37.251Z,54.86
2023-01-19T12:02:42.572Z,54.67
2023-01-19T12:03:49.286Z,55.48
2023-01-19T12:04:50.843Z,54.77
2023-01-19T12:05:52.848Z,55.13
2023-01-19T12:06:54.814Z,55.09
2023-01-19T12:07:56.358Z,54.91
2023-01-19T12:09:01.879Z,55.06
2023-01-19T12:10:12.434Z,55.24
2023-01-19T12:11:18.696Z,54.96
2023-01-19T12:12:30.029Z,54.90
2023-01-19T12:13:31.893Z,55.16
2023-01-19T12:14:52.518Z,54.96
2023-01-19T12:15:58.649Z,54.86
2023-01-19T12:17:00.334Z,54.41
2023-01-19T12:18:02.508Z,54.66
2023-01-19T12:19:10.779Z,54.35
2023-01-19T12:20:31.810Z,54.07
2023-01-19T12:21:33.360Z,54.99
2023-01-19T12:22:36.927Z,54.80
2023-01-19T12:23:47.584Z,54.71
2023-01-19T12:25:01.578Z,54.11
2023-01-19T12:26:03.146Z,54.72
2023-01-19T12:27:09.970Z,54.21
2023-01-19T12:28:13.057Z,54.32
2023-01-19T12:29:22.388Z,54.61
2023-01-19T12:30:24.936Z,54.56
2023-01-19T12:31:26.746Z,54.55
2023-01-19T12:32:35.019Z,54.85
2023-01-19T12:33:37.765Z,54.41
2023-01-19T12:34:42.477Z,53.87
2023-01-19T12:35:57.234Z,53.61
2023-01-19T12:37:00.778Z,54.02
2023-01-19T12:38:02.277Z,53.95
2023-01-19T12:39:18.272Z,54.23
2023-01-19T12:40:28.749Z,54.38
2023-01-19T12:41:31.403Z,54.07
2023-01-19T12:42:32.911Z,53.96
2023-01-19T12:43:34.478Z,54.20
2023-01-19T12:44:35.989Z,54.05
2023-01-19T12:45:39.766Z,54.10
2023-01-19T12:46:41.592Z,54.16
2023-01-19T12:47:53.246Z,54.05
2023-01-19T12:48:54.803Z,54.08
2023-01-19T12:49:56.782Z,53.86
2023-01-19T12:50:58.313Z,53.72
2023-01-19T12:52:19.515Z,53.64
2023-01-19T12:53:21.024Z,52.98
2023-01-19T12:54:28.589Z,53.05
2023-01-19T12:55:31.205Z,53.92
2023-01-19T12:56:33.566Z,53.96
2023-01-19T12:57:38.145Z,54.03
2023-01-19T12:58:39.637Z,54.05
2023-01-19T12:59:41.146Z,53.69
2023-01-19T13:00:42.946Z,53.52
2023-01-19T13:01:44.556Z,53.79
2023-01-19T13:02:47.026Z,53.94
2023-01-19T13:03:57.921Z,54.30
2023-01-19T13:05:18.700Z,54.38
2023-01-19T13:06:20.173Z,54.03
2023-01-19T13:07:21.697Z,53.80
2023-01-19T13:08:24.064Z,54.39
2023-01-19T13:09:32.032Z,54.06
2023-01-19T13:10:52.125Z,54.17
2023-01-19T13:12:12.629Z,54.59
2023-01-19T13:13:21.214Z,54.48
2023-01-19T13:14:35.258Z,54.59
2023-01-19T13:15:37.051Z,54.57
2023-01-19T13:16:38.689Z,54.97
2023-01-19T13:17:52.304Z,55.02
2023-01-19T13:18:54.650Z,54.76
2023-01-19T13:19:58.372Z,54.25
2023-01-19T13:21:04.082Z,54.42
2023-01-19T13:22:24.210Z,54.47
2023-01-19T13:23:26.487Z,54.87
2023-01-19T13:24:29.338Z,54.95
2023-01-19T13:25:31.371Z,54.38
2023-01-19T13:26:33.428Z,54.42
2023-01-19T13:27:34.911Z,54.56
2023-01-19T13:28:40.689Z,54.46
2023-01-19T13:29:42.169Z,54.65
2023-01-19T13:30:49.550Z,54.75
2023-01-19T13:31:56.143Z,54.44
2023-01-19T13:33:01.599Z,54.67
2023-01-19T13:34:03.187Z,54.46
2023-01-19T13:35:05.410Z,54.30
2023-01-19T13:36:07.681Z,54.12
2023-01-19T13:37:16.423Z,54.39
2023-01-19T13:38:17.972Z,54.28